»·PEaware :: SWA6024 KSFO-KPDX

SWA6024 :: KSFO-KPDX

FLIGHT INFORMATION

Flight Status: Arrived
Operator:
Southwest Airlines
More flights by this operator :: More flights under this callsign
Pilot: Max W. (2591)
Aircraft: BOEING 737-800
(B738)
More flights by this aircraft type
Origin: KSFO San Francisco Intl
United States
Destination: KPDX Portland Intl
United States
More flights between these airports :: More routes between these airports
Route: +TRUKN2 GRTFL MACHU TMBRS2
File this flight plan on PilotEdge
Remarks:
Altitude:
(Current/Filed)
36,000ft
Speed:
(Current/Filed)
450kts
Departed: 08-Nov-19 02:23 PM
Arrived: 08-Nov-19 03:37 PM
Distance/Time
Traveled:
478nm/1:14
Distance/Time
To Go:
Arrived

Flight Plot

Page will automatically refresh every two minutes.


Map Options




Map Legend


Flown Route
Filed Route
Departure Airport
Arrival Airport
Navaid (VOR, NDB)
Fix

Horizontal Profiles

Position Reports

Time Latitude Longitude Heading Altitude Ground
Speed
08-Nov-19 13:44 37.613621 -122.384456 255 21ft 0kts
08-Nov-19 13:45 37.613621 -122.384456 255 21ft 0kts
08-Nov-19 13:46 37.613621 -122.384456 255 21ft 0kts
08-Nov-19 13:47 37.613621 -122.384456 255 21ft 0kts
08-Nov-19 13:48 37.613621 -122.384456 255 21ft 0kts
08-Nov-19 13:49 37.613621 -122.384456 255 21ft 0kts
08-Nov-19 13:50 37.613621 -122.384456 255 21ft 0kts
08-Nov-19 13:51 37.613621 -122.384456 255 21ft 0kts
08-Nov-19 13:52 37.613621 -122.384456 255 21ft 0kts
08-Nov-19 13:53 37.613621 -122.384456 255 21ft 0kts
08-Nov-19 13:54 37.613621 -122.384456 255 21ft 0kts
08-Nov-19 13:55 37.613621 -122.384456 255 21ft 0kts
08-Nov-19 13:56 37.613621 -122.384456 255 21ft 0kts
08-Nov-19 13:57 37.613621 -122.384456 255 21ft 0kts
08-Nov-19 13:58 37.613621 -122.384456 255 21ft 0kts
08-Nov-19 13:59 37.613621 -122.384456 255 21ft 0kts
08-Nov-19 14:00 37.613621 -122.384456 255 21ft 0kts
08-Nov-19 14:01 37.613621 -122.384456 255 21ft 0kts
08-Nov-19 14:02 37.613621 -122.384456 255 21ft 0kts
08-Nov-19 14:03 37.613621 -122.384456 255 21ft 0kts
08-Nov-19 14:04 37.613621 -122.384456 255 21ft 0kts
08-Nov-19 14:05 37.613621 -122.384456 255 21ft 0kts
08-Nov-19 14:06 37.613621 -122.384456 255 21ft 0kts
08-Nov-19 14:07 37.613621 -122.384456 255 21ft 0kts
08-Nov-19 14:08 37.613621 -122.384456 255 21ft 0kts
08-Nov-19 14:09 37.613621 -122.384456 255 21ft 0kts
08-Nov-19 14:10 37.613621 -122.384456 255 21ft 0kts
08-Nov-19 14:11 37.613735 -122.383907 255 21ft 2kts
08-Nov-19 14:12 37.613818 -122.383505 255 21ft 0kts
08-Nov-19 14:13 37.613818 -122.383506 255 21ft 0kts
08-Nov-19 14:14 37.613817 -122.383508 255 21ft 0kts
08-Nov-19 14:15 37.613552 -122.382456 114 21ft 11kts
08-Nov-19 14:16 37.610798 -122.383522 207 21ft 15kts
08-Nov-19 14:17 37.609320 -122.383336 116 21ft 0kts
08-Nov-19 14:18 37.609319 -122.383335 116 21ft 0kts
08-Nov-19 14:19 37.609318 -122.383333 116 21ft 0kts
08-Nov-19 14:20 37.609318 -122.383332 116 21ft 0kts
08-Nov-19 14:21 37.609309 -122.381991 26 21ft 0kts
08-Nov-19 14:22 37.629485 -122.368414 29 344ft 179kts
08-Nov-19 14:23 37.660800 -122.321046 53 3292ft 197kts
08-Nov-19 14:24 37.698165 -122.252337 57 5322ft 268kts
08-Nov-19 14:25 37.767808 -122.216378 1 8405ft 297kts
08-Nov-19 14:26 37.852643 -122.218099 358 11456ft 315kts
08-Nov-19 14:27 37.950199 -122.220747 359 12693ft 384kts
08-Nov-19 14:28 38.057430 -122.223595 359 14982ft 400kts
08-Nov-19 14:29 38.170760 -122.226606 359 17204ft 414kts
08-Nov-19 14:30 38.287884 -122.229743 0 19218ft 426kts
08-Nov-19 14:31 38.408100 -122.235900 356 21063ft 438kts
08-Nov-19 14:32 38.530813 -122.249762 356 22686ft 448kts
08-Nov-19 14:33 38.656515 -122.263124 356 24121ft 458kts
08-Nov-19 14:34 38.784758 -122.276527 357 25424ft 467kts
08-Nov-19 14:35 38.915324 -122.290216 357 26615ft 475kts
08-Nov-19 14:36 39.048691 -122.304261 357 27704ft 483kts
08-Nov-19 14:37 39.182241 -122.318383 357 29088ft 481kts
08-Nov-19 14:38 39.315111 -122.332489 357 30583ft 477kts
08-Nov-19 14:39 39.447407 -122.346583 356 31987ft 474kts
08-Nov-19 14:41 39.578557 -122.360616 356 33275ft 472kts
08-Nov-19 14:42 39.709026 -122.374624 356 34502ft 470kts
08-Nov-19 14:43 39.837256 -122.388442 356 35625ft 467kts
08-Nov-19 14:44 39.966882 -122.402477 355 36225ft 467kts
08-Nov-19 14:45 40.096151 -122.416501 355 36223ft 466kts
08-Nov-19 14:46 40.225399 -122.430596 355 36220ft 466kts
08-Nov-19 14:47 40.355074 -122.444782 355 36219ft 466kts
08-Nov-19 14:48 40.483855 -122.458929 355 36216ft 465kts
08-Nov-19 14:49 40.613074 -122.473178 354 36224ft 466kts
08-Nov-19 14:50 40.742561 -122.487512 354 36243ft 465kts
08-Nov-19 14:51 40.871416 -122.501833 354 36264ft 466kts
08-Nov-19 14:52 41.000786 -122.516278 353 36281ft 466kts
08-Nov-19 14:53 41.129864 -122.530728 353 36297ft 465kts
08-Nov-19 14:54 41.258798 -122.545178 353 36310ft 465kts
08-Nov-19 14:55 41.387712 -122.559755 353 36316ft 465kts
08-Nov-19 14:56 41.517025 -122.574439 353 36316ft 465kts
08-Nov-19 14:57 41.646197 -122.583467 355 36317ft 465kts
08-Nov-19 14:58 41.775474 -122.591690 355 36318ft 465kts
08-Nov-19 14:59 41.904566 -122.600071 355 36317ft 465kts
08-Nov-19 15:00 42.033767 -122.608551 354 36308ft 465kts
08-Nov-19 15:00 42.141550 -122.615688 354 36295ft 465kts
08-Nov-19 15:01 42.270887 -122.624300 354 36273ft 465kts
08-Nov-19 15:03 42.421821 -122.634407 354 36263ft 465kts
08-Nov-19 15:03 42.529374 -122.641613 354 36263ft 465kts
08-Nov-19 15:04 42.658559 -122.650277 353 36263ft 465kts
08-Nov-19 15:06 42.809458 -122.660502 353 36261ft 465kts
08-Nov-19 15:06 42.917336 -122.667840 353 36259ft 465kts
08-Nov-19 15:07 43.046484 -122.676668 353 36256ft 465kts
08-Nov-19 15:08 43.175747 -122.685479 352 36258ft 464kts
08-Nov-19 15:09 43.304850 -122.694381 352 36257ft 464kts
08-Nov-19 15:10 43.433514 -122.703272 352 36258ft 464kts
08-Nov-19 15:11 43.562450 -122.712185 352 36253ft 463kts
08-Nov-19 15:12 43.691826 -122.721173 352 34298ft 466kts
08-Nov-19 15:13 43.821722 -122.730185 352 31306ft 470kts
08-Nov-19 15:14 43.953553 -122.739365 352 28192ft 473kts
08-Nov-19 15:15 44.083107 -122.748483 352 25752ft 461kts
08-Nov-19 15:16 44.209875 -122.749018 359 23346ft 455kts
08-Nov-19 15:17 44.334485 -122.735125 359 20948ft 444kts
08-Nov-19 15:18 44.455471 -122.723059 359 19042ft 421kts
08-Nov-19 15:19 44.566967 -122.711965 359 18152ft 382kts
08-Nov-19 15:20 44.669878 -122.701665 359 16928ft 364kts
08-Nov-19 15:21 44.767763 -122.691803 359 15480ft 356kts
08-Nov-19 15:22 44.866034 -122.681918 359 14036ft 349kts
08-Nov-19 15:23 44.959940 -122.672423 359 13270ft 323kts
08-Nov-19 15:24 45.048673 -122.663488 359 12122ft 316kts
08-Nov-19 15:25 45.135437 -122.654637 0 10739ft 309kts
08-Nov-19 15:26 45.218704 -122.646155 0 9602ft 295kts
08-Nov-19 15:27 45.296340 -122.667968 333 8343ft 281kts
08-Nov-19 15:28 45.368834 -122.707640 335 7012ft 276kts
08-Nov-19 15:29 45.439767 -122.746782 335 5668ft 270kts
08-Nov-19 15:30 45.508994 -122.786520 335 4321ft 266kts
08-Nov-19 15:31 45.577638 -122.820327 4 3214ft 259kts
08-Nov-19 15:32 45.637750 -122.790066 48 2610ft 218kts
08-Nov-19 15:33 45.632726 -122.717829 120 1536ft 177kts
08-Nov-19 15:34 45.611065 -122.662258 119 679ft 151kts
08-Nov-19 15:35 45.591252 -122.611474 118 27ft 130kts
08-Nov-19 15:36 45.588651 -122.599391 298 26ft 5kts
08-Nov-19 15:37 45.590397 -122.600526 122 26ft 8kts

Navigation Log

Ident Type
Flight plan parsing failed, navigation log unavailable